Time;durP1;ratioP1;P1;durP2;ratioP2;P2;SDS_P1;SDS_P2;PMS_P1;PMS_P2;Temp;Humidity;BMP_temperature;BMP_pressure;BME280_temperature;BME280_humidity;BME280_pressure;Samples;Min_cycle;Max_cycle;Signal;HPM_P1;HPM_P2
2021/07/04 00:01:24;;;;;;;5.13;3.05;;;22.30;63.00;;;;;;6300618;28;20060;-73
2021/07/04 00:04:26;;;;;;;5.07;3.17;;;22.20;63.10;;;;;;6302505;28;20040;-73
2021/07/04 00:07:28;;;;;;;6.47;3.13;;;22.20;63.20;;;;;;6300541;28;20040;-74
2021/07/04 00:10:33;;;;;;;6.10;2.55;;;22.20;63.30;;;;;;6300560;28;20032;-73
2021/07/04 00:13:35;;;;;;;9.70;3.28;;;22.20;63.30;;;;;;6299015;28;20045;-73
2021/07/04 00:16:36;;;;;;;6.63;3.10;;;22.20;63.40;;;;;;6317372;28;20063;-73
2021/07/04 00:19:37;;;;;;;5.07;3.00;;;22.20;63.60;;;;;;6267253;28;20454;-73
2021/07/04 00:22:40;;;;;;;5.15;3.20;;;22.20;63.60;;;;;;6274598;28;20124;-73
2021/07/04 00:25:43;;;;;;;5.38;3.22;;;22.10;63.70;;;;;;6299941;28;20036;-73
2021/07/04 00:28:45;;;;;;;9.98;3.38;;;22.10;63.90;;;;;;6249598;28;20358;-74
2021/07/04 00:31:46;;;;;;;4.38;3.00;;;22.10;64.10;;;;;;6266709;28;20134;-73
2021/07/04 00:34:47;;;;;;;9.30;3.40;;;22.10;64.20;;;;;;6314687;28;20369;-74
2021/07/04 00:37:49;;;;;;;5.15;3.10;;;22.10;64.30;;;;;;6299388;28;20028;-73
2021/07/04 00:40:51;;;;;;;7.97;3.35;;;22.10;64.30;;;;;;6299792;28;20362;-73
2021/07/04 00:43:52;;;;;;;4.80;3.00;;;22.00;64.20;;;;;;6299557;28;20033;-73
2021/07/04 00:46:54;;;;;;;6.20;3.50;;;22.00;64.30;;;;;;6282962;28;20480;-73
2021/07/04 00:49:55;;;;;;;5.30;3.42;;;22.00;64.40;;;;;;6298990;28;20036;-73
2021/07/04 00:52:58;;;;;;;6.38;3.40;;;22.00;64.40;;;;;;6315239;28;20049;-73
2021/07/04 00:56:04;;;;;;;6.55;3.75;;;22.00;64.40;;;;;;6299950;28;20047;-74
2021/07/04 00:59:06;;;;;;;6.88;3.13;;;22.00;64.50;;;;;;6298919;28;20094;-73
2021/07/04 01:02:09;;;;;;;7.13;3.03;;;22.00;64.40;;;;;;6299764;28;20059;-73
2021/07/04 01:05:16;;;;;;;5.30;3.60;;;22.00;64.40;;;;;;6325355;28;20032;-73
2021/07/04 01:08:18;;;;;;;3.10;2.47;;;22.00;64.40;;;;;;6323997;28;20032;-73
2021/07/04 01:11:20;;;;;;;5.05;2.90;;;22.00;64.40;;;;;;6324005;28;20032;-73
2021/07/04 01:14:22;;;;;;;5.30;3.00;;;21.90;64.50;;;;;;6325074;28;20079;-74
2021/07/04 01:17:24;;;;;;;4.88;2.92;;;21.90;64.40;;;;;;6322289;28;20135;-74
2021/07/04 01:20:28;;;;;;;4.65;2.92;;;21.90;64.40;;;;;;6301485;28;20028;-73
2021/07/04 01:23:30;;;;;;;4.80;2.78;;;21.90;64.40;;;;;;6297998;28;20040;-74
2021/07/04 01:26:32;;;;;;;3.72;2.92;;;21.90;64.30;;;;;;6297741;28;20048;-73
2021/07/04 01:29:34;;;;;;;6.95;3.10;;;21.90;64.40;;;;;;6297725;28;20028;-73
2021/07/04 01:32:36;;;;;;;6.38;3.28;;;21.90;64.50;;;;;;6302358;28;20488;-73
2021/07/04 01:35:38;;;;;;;11.55;3.28;;;21.90;64.50;;;;;;6323733;28;20097;-73
2021/07/04 01:38:39;;;;;;;4.60;2.88;;;21.90;64.40;;;;;;6324354;28;20094;-73
2021/07/04 01:41:44;;;;;;;5.55;2.85;;;21.90;64.30;;;;;;6306902;28;20093;-74
2021/07/04 01:44:52;;;;;;;8.23;2.70;;;21.90;64.30;;;;;;6323423;28;20365;-73
2021/07/04 01:47:54;;;;;;;4.55;2.85;;;21.90;64.30;;;;;;6323860;28;20032;-74
2021/07/04 01:50:58;;;;;;;9.45;2.78;;;21.90;64.30;;;;;;6323392;28;20056;-73
2021/07/04 01:54:04;;;;;;;5.85;2.20;;;21.90;64.30;;;;;;6320299;28;20047;-73
2021/07/04 01:57:16;;;;;;;3.53;2.40;;;21.90;64.20;;;;;;6298618;28;20424;-73
2021/07/04 02:00:33;;;;;;;2.92;2.33;;;22.00;64.10;;;;;;6296504;28;20082;-73
2021/07/04 02:03:42;;;;;;;5.80;2.60;;;22.00;64.10;;;;;;6249539;28;20109;-73
2021/07/04 02:06:49;;;;;;;7.05;2.30;;;22.00;64.20;;;;;;6281971;28;20067;-74
2021/07/04 02:09:52;;;;;;;3.83;2.40;;;22.00;64.20;;;;;;6270198;28;20033;-74
2021/07/04 02:12:57;;;;;;;4.00;2.70;;;22.00;64.20;;;;;;6270379;28;20037;-74
2021/07/04 02:15:58;;;;;;;10.02;2.97;;;22.00;64.20;;;;;;6270601;28;20080;-73
2021/07/04 02:19:09;;;;;;;2.22;1.90;;;22.00;64.20;;;;;;6269051;28;20033;-73
2021/07/04 02:22:29;;;;;;;4.07;2.25;;;22.00;64.20;;;;;;6268781;28;20037;-73
2021/07/04 02:25:50;;;;;;;4.18;2.88;;;22.00;64.20;;;;;;6268595;28;20028;-73
2021/07/04 02:28:51;;;;;;;5.32;2.67;;;21.90;64.20;;;;;;6291437;28;20460;-73
2021/07/04 02:32:08;;;;;;;4.63;2.40;;;21.90;64.20;;;;;;6279318;28;20048;-73
2021/07/04 02:35:10;;;;;;;5.07;2.70;;;21.90;64.20;;;;;;6317061;28;20097;-73
2021/07/04 02:38:13;;;;;;;7.18;2.95;;;21.90;64.20;;;;;;6324649;28;20101;-73
2021/07/04 02:41:14;;;;;;;8.85;2.88;;;21.90;64.30;;;;;;6291262;28;20063;-73
2021/07/04 02:44:15;;;;;;;7.35;2.55;;;21.80;64.50;;;;;;6269598;28;20525;-73
2021/07/04 02:47:19;;;;;;;7.15;3.05;;;21.80;64.50;;;;;;6302021;28;20036;-73
2021/07/04 02:50:22;;;;;;;5.30;3.40;;;21.70;64.60;;;;;;6286164;28;20032;-73
2021/07/04 02:53:24;;;;;;;8.45;3.20;;;21.70;64.60;;;;;;6301868;28;20055;-72
2021/07/04 02:56:28;;;;;;;5.32;3.15;;;21.70;64.80;;;;;;6275424;28;20048;-73
2021/07/04 02:59:30;;;;;;;8.10;2.90;;;21.70;64.90;;;;;;6238992;28;20038;-73
2021/07/04 03:02:32;;;;;;;4.68;2.90;;;21.70;64.90;;;;;;6277594;28;20036;-73
2021/07/04 03:05:34;;;;;;;6.93;2.83;;;21.70;64.80;;;;;;6327955;28;20089;-73
2021/07/04 03:08:36;;;;;;;9.25;3.40;;;21.70;64.90;;;;;;6311221;28;20036;-73
2021/07/04 03:11:40;;;;;;;8.30;2.60;;;21.70;64.80;;;;;;6310143;28;20032;-73
2021/07/04 03:14:42;;;;;;;4.45;2.72;;;21.70;64.70;;;;;;6295482;28;20453;-73
2021/07/04 03:17:44;;;;;;;4.22;3.00;;;21.70;64.60;;;;;;6324697;28;20084;-73
2021/07/04 03:20:46;;;;;;;5.05;2.63;;;21.70;64.60;;;;;;6302977;28;20108;-73
2021/07/04 03:23:49;;;;;;;8.32;2.97;;;21.70;64.70;;;;;;6298211;28;20039;-72
2021/07/04 03:26:51;;;;;;;7.88;3.13;;;21.70;64.70;;;;;;6277733;28;20519;-73
2021/07/04 03:29:53;;;;;;;4.50;3.13;;;21.60;64.70;;;;;;6302613;28;20449;-73
2021/07/04 03:32:54;;;;;;;4.63;2.55;;;21.60;64.90;;;;;;6310972;28;20378;-74
2021/07/04 03:36:02;;;;;;;6.00;2.50;;;21.60;65.10;;;;;;6328243;28;20024;-73
2021/07/04 03:39:05;;;;;;;7.95;2.72;;;21.60;65.10;;;;;;6329225;28;20344;-73
2021/07/04 03:42:06;;;;;;;13.68;3.25;;;21.60;65.10;;;;;;6330634;28;20071;-74
2021/07/04 03:45:08;;;;;;;5.95;2.80;;;21.60;65.20;;;;;;6329528;28;20028;-74
2021/07/04 03:48:10;;;;;;;9.98;2.85;;;21.60;65.20;;;;;;6312511;28;20024;-74
2021/07/04 03:51:19;;;;;;;7.55;2.63;;;21.60;65.20;;;;;;6329586;28;20036;-73
2021/07/04 03:54:20;;;;;;;3.17;2.53;;;21.60;65.10;;;;;;6312010;28;20042;-73
2021/07/04 03:57:22;;;;;;;5.65;2.95;;;21.60;65.10;;;;;;6306822;28;20039;-73
2021/07/04 04:00:28;;;;;;;4.78;2.92;;;21.60;65.10;;;;;;6300799;28;20036;-73
2021/07/04 04:03:39;;;;;;;6.57;2.80;;;21.60;65.10;;;;;;6311018;28;20107;-73
2021/07/04 04:06:40;;;;;;;6.43;2.67;;;21.60;65.10;;;;;;6325081;28;20043;-73
2021/07/04 04:09:55;;;;;;;3.40;2.45;;;21.50;65.00;;;;;;6319708;28;20140;-74
2021/07/04 04:13:01;;;;;;;7.20;2.95;;;21.50;65.20;;;;;;6306020;28;20484;-74
2021/07/04 04:16:10;;;;;;;8.40;2.70;;;21.50;65.20;;;;;;6307282;28;20036;-73
2021/07/04 04:19:13;;;;;;;3.95;2.55;;;21.50;65.10;;;;;;6324712;28;20361;-73
2021/07/04 04:22:16;;;;;;;5.85;3.20;;;21.60;65.10;;;;;;6323483;28;20062;-73
2021/07/04 04:25:22;;;;;;;4.47;2.83;;;21.60;65.00;;;;;;6292578;28;20032;-73
2021/07/04 04:28:24;;;;;;;8.63;2.90;;;21.60;65.00;;;;;;6282800;28;20479;-74
2021/07/04 04:31:27;;;;;;;5.50;2.45;;;21.60;65.00;;;;;;6299250;28;20037;-74
2021/07/04 04:34:30;;;;;;;3.47;2.42;;;21.60;65.00;;;;;;6318998;28;20040;-73
2021/07/04 04:37:31;;;;;;;6.70;2.97;;;21.60;65.00;;;;;;6324126;28;20115;-74
2021/07/04 04:40:33;;;;;;;4.05;2.55;;;21.70;64.90;;;;;;6322932;28;20071;-74
2021/07/04 04:43:34;;;;;;;5.25;2.92;;;21.70;64.70;;;;;;6314553;28;20040;-74
2021/07/04 04:46:35;;;;;;;12.32;4.60;;;21.70;64.60;;;;;;6320999;28;20055;-74
2021/07/04 04:49:37;;;;;;;4.93;2.55;;;21.70;64.70;;;;;;6324983;28;20060;-74
2021/07/04 04:52:38;;;;;;;5.70;3.03;;;21.70;64.80;;;;;;6306547;28;20055;-75
2021/07/04 04:55:40;;;;;;;4.65;3.30;;;21.70;64.70;;;;;;6310690;28;20036;-74
2021/07/04 04:58:43;;;;;;;8.65;3.53;;;21.70;64.70;;;;;;6282264;28;20035;-74
2021/07/04 05:01:44;;;;;;;4.82;2.78;;;21.80;64.60;;;;;;6314758;28;20036;-74
2021/07/04 05:04:45;;;;;;;6.68;2.92;;;21.80;64.60;;;;;;6296936;28;20037;-74
2021/07/04 05:07:48;;;;;;;4.05;2.53;;;21.80;64.40;;;;;;6273496;28;20044;-73
2021/07/04 05:10:49;;;;;;;7.07;2.80;;;21.80;64.30;;;;;;6273816;28;20450;-74
2021/07/04 05:13:51;;;;;;;4.53;2.60;;;21.80;64.40;;;;;;6271945;28;20091;-73
2021/07/04 05:16:52;;;;;;;5.53;3.05;;;21.80;64.50;;;;;;6272927;28;20378;-73
2021/07/04 05:19:53;;;;;;;3.38;2.67;;;21.90;64.60;;;;;;6277004;28;20029;-73
2021/07/04 05:22:55;;;;;;;4.53;2.95;;;21.90;64.40;;;;;;6281593;28;20032;-73
2021/07/04 05:25:58;;;;;;;5.05;2.90;;;21.90;64.20;;;;;;6296682;28;20067;-73
2021/07/04 05:28:59;;;;;;;4.28;2.38;;;21.90;64.10;;;;;;6299704;28;20391;-73
2021/07/04 05:32:03;;;;;;;3.08;2.35;;;21.90;64.00;;;;;;6302406;28;20067;-74
2021/07/04 05:35:06;;;;;;;4.88;2.55;;;21.90;64.00;;;;;;6308135;28;20028;-73
2021/07/04 05:38:18;;;;;;;2.80;2.28;;;21.90;64.00;;;;;;6326273;28;20502;-73
2021/07/04 05:41:19;;;;;;;5.18;2.50;;;21.90;64.10;;;;;;6324621;28;20162;-74
2021/07/04 05:44:20;;;;;;;3.80;2.88;;;21.90;64.00;;;;;;6325974;28;20035;-74
2021/07/04 05:47:21;;;;;;;4.25;2.50;;;21.90;63.90;;;;;;6308744;28;20041;-73
2021/07/04 05:50:22;;;;;;;4.68;2.47;;;21.90;63.90;;;;;;6324806;28;20449;-75
2021/07/04 05:53:24;;;;;;;5.47;2.60;;;22.00;63.90;;;;;;6317485;28;20032;-72
2021/07/04 05:56:25;;;;;;;3.58;2.25;;;22.00;63.70;;;;;;6283708;28;20032;-72
2021/07/04 05:59:26;;;;;;;4.13;2.70;;;22.10;63.70;;;;;;6299281;28;20048;-73
2021/07/04 06:02:27;;;;;;;4.03;2.55;;;22.10;63.50;;;;;;6299847;28;20036;-73
2021/07/04 06:05:29;;;;;;;5.07;2.92;;;22.20;63.30;;;;;;6307248;28;20036;-73
2021/07/04 06:08:30;;;;;;;4.78;2.53;;;22.20;63.20;;;;;;6322325;28;20123;-73
2021/07/04 06:11:31;;;;;;;5.25;2.78;;;22.30;63.20;;;;;;6321499;28;20032;-73
2021/07/04 06:14:33;;;;;;;4.28;2.83;;;22.20;63.10;;;;;;6322068;28;20468;-73
2021/07/04 06:17:35;;;;;;;4.68;2.70;;;22.30;63.00;;;;;;6321930;28;20047;-73
2021/07/04 06:20:36;;;;;;;7.88;2.90;;;22.30;62.80;;;;;;6320616;28;20035;-73
2021/07/04 06:23:37;;;;;;;4.93;2.75;;;22.40;62.70;;;;;;6322140;28;20450;-73
2021/07/04 06:26:39;;;;;;;4.28;2.70;;;22.40;62.20;;;;;;6283680;28;20450;-73
2021/07/04 06:29:40;;;;;;;4.57;2.67;;;22.50;62.20;;;;;;6296706;28;20040;-73
2021/07/04 06:32:42;;;;;;;4.22;2.60;;;22.50;62.10;;;;;;6284699;28;20134;-72
2021/07/04 06:35:44;;;;;;;7.15;2.95;;;22.60;62.00;;;;;;6321739;28;20032;-74
2021/07/04 06:38:45;;;;;;;5.65;2.95;;;22.50;61.90;;;;;;6304945;28;20031;-74
2021/07/04 06:41:46;;;;;;;4.50;2.72;;;22.60;62.10;;;;;;6320877;28;20051;-73
2021/07/04 06:44:47;;;;;;;5.70;2.65;;;22.60;62.10;;;;;;6321468;28;20037;-73
2021/07/04 06:47:49;;;;;;;3.47;2.15;;;22.60;62.00;;;;;;6321563;28;20106;-74
2021/07/04 06:50:51;;;;;;;3.97;2.80;;;22.60;62.10;;;;;;6304717;28;20036;-73
2021/07/04 06:53:52;;;;;;;4.68;2.58;;;22.60;62.00;;;;;;6320660;28;20109;-74
2021/07/04 06:56:53;;;;;;;5.25;2.80;;;22.70;61.80;;;;;;6299193;28;20036;-73
2021/07/04 07:00:05;;;;;;;4.82;2.78;;;22.90;61.40;;;;;;6313023;28;20474;-73
2021/07/04 07:03:08;;;;;;;5.57;2.30;;;23.10;61.00;;;;;;6300466;28;20032;-74
2021/07/04 07:06:10;;;;;;;11.77;2.65;;;23.20;60.60;;;;;;6319888;28;20322;-74
2021/07/04 07:09:11;;;;;;;3.60;2.40;;;23.40;60.00;;;;;;6320652;28;20047;-74
2021/07/04 07:12:13;;;;;;;6.13;2.30;;;23.60;59.80;;;;;;6319259;28;20111;-74
2021/07/04 07:15:15;;;;;;;6.53;2.55;;;23.70;59.50;;;;;;6303271;28;20420;-73
2021/07/04 07:18:16;;;;;;;5.80;2.60;;;23.90;59.10;;;;;;6291527;28;20141;-74
2021/07/04 07:21:17;;;;;;;3.13;2.72;;;23.90;58.90;;;;;;6292560;28;20117;-73
2021/07/04 07:24:19;;;;;;;7.43;3.70;;;23.90;58.80;;;;;;6296177;28;20032;-74
2021/07/04 07:27:21;;;;;;;6.07;3.35;;;23.90;58.90;;;;;;6275115;28;20048;-74
2021/07/04 07:30:23;;;;;;;6.60;2.92;;;23.80;58.90;;;;;;6290579;28;20029;-74
2021/07/04 07:33:26;;;;;;;6.75;3.53;;;23.80;59.00;;;;;;6264019;28;20040;-74
2021/07/04 07:36:27;;;;;;;5.88;3.22;;;23.80;58.90;;;;;;6273644;28;20048;-73
2021/07/04 07:39:28;;;;;;;7.80;3.17;;;23.90;58.90;;;;;;6274005;28;20037;-74
2021/07/04 07:42:29;;;;;;;7.90;3.53;;;24.10;58.70;;;;;;6273272;28;20142;-74
2021/07/04 07:45:31;;;;;;;5.53;3.70;;;24.20;58.40;;;;;;6295459;28;20113;-73
2021/07/04 07:48:40;;;;;;;6.85;2.97;;;24.30;57.90;;;;;;6298033;28;20460;-73
2021/07/04 07:52:05;;;;;;;5.80;2.80;;;24.50;58.40;;;;;;6297336;28;20115;-73
2021/07/04 07:55:12;;;;;;;3.92;2.60;;;24.60;57.50;;;;;;6296734;28;20052;-73
2021/07/04 07:58:14;;;;;;;3.65;3.10;;;24.70;57.30;;;;;;6314984;28;20057;-72
2021/07/04 08:01:15;;;;;;;6.78;2.88;;;24.80;57.20;;;;;;6296985;28;20040;-74
2021/07/04 08:04:17;;;;;;;6.15;3.13;;;24.80;57.10;;;;;;6313964;28;20088;-74
2021/07/04 08:07:18;;;;;;;4.15;2.45;;;24.80;57.00;;;;;;6322860;28;20036;-74
2021/07/04 08:10:20;;;;;;;3.88;2.63;;;24.80;56.90;;;;;;6321894;28;20435;-74
2021/07/04 08:13:22;;;;;;;4.32;2.50;;;24.80;56.90;;;;;;6327239;28;20102;-74
2021/07/04 08:16:24;;;;;;;6.72;2.65;;;24.80;56.90;;;;;;6334190;28;20118;-75
2021/07/04 08:19:25;;;;;;;5.90;2.63;;;24.80;57.50;;;;;;6333780;28;20036;-72
2021/07/04 08:22:27;;;;;;;3.17;2.33;;;24.80;56.90;;;;;;6327788;28;20043;-73
2021/07/04 08:25:28;;;;;;;5.70;2.90;;;24.80;56.90;;;;;;6316303;28;20033;-73
2021/07/04 08:28:29;;;;;;;7.03;2.58;;;24.80;56.80;;;;;;6298735;28;20043;-73
2021/07/04 08:31:30;;;;;;;4.07;2.72;;;24.70;56.80;;;;;;6296759;28;20033;-73
2021/07/04 08:34:32;;;;;;;3.58;2.47;;;24.70;56.70;;;;;;6317016;28;20075;-74
2021/07/04 08:37:33;;;;;;;4.78;2.50;;;24.70;56.70;;;;;;6295938;28;20036;-74
2021/07/04 08:40:35;;;;;;;4.72;3.17;;;24.60;56.80;;;;;;6321492;28;20429;-74
2021/07/04 08:43:40;;;;;;;4.95;2.88;;;24.60;56.70;;;;;;6305227;28;20044;-74
2021/07/04 08:46:45;;;;;;;4.53;2.83;;;24.60;56.70;;;;;;6317953;28;20040;-74
2021/07/04 08:49:47;;;;;;;5.72;2.95;;;24.60;56.80;;;;;;6314810;28;20040;-74
2021/07/04 08:52:49;;;;;;;4.45;3.00;;;24.50;56.90;;;;;;6321230;28;20050;-73
2021/07/04 08:55:52;;;;;;;3.35;2.45;;;24.50;57.10;;;;;;6309731;28;20410;-73
2021/07/04 08:58:53;;;;;;;6.43;2.67;;;24.40;57.30;;;;;;6260498;28;20065;-74
2021/07/04 09:01:54;;;;;;;4.70;2.90;;;24.30;57.50;;;;;;6298419;28;20028;-73
2021/07/04 09:05:02;;;;;;;5.82;2.80;;;24.30;57.90;;;;;;6315091;28;20079;-73
2021/07/04 09:08:16;;;;;;;;;;;24.10;58.20;;;;;;6322506;28;20061;-73
2021/07/04 09:11:18;;;;;;;5.80;3.40;;;24.00;58.60;;;;;;6309899;28;20038;-74
2021/07/04 09:14:37;;;;;;;10.43;4.28;;;23.80;59.20;;;;;;6298937;28;20484;-74
2021/07/04 09:17:41;;;;;;;9.43;4.07;;;23.50;60.00;;;;;;6272410;28;20416;-73
2021/07/04 09:20:42;;;;;;;6.43;4.05;;;23.30;60.90;;;;;;6289036;28;20041;-73
2021/07/04 09:23:44;;;;;;;9.15;4.43;;;23.20;61.60;;;;;;6289360;28;20346;-73
2021/07/04 09:26:45;;;;;;;7.38;4.18;;;23.10;62.30;;;;;;6296618;28;20048;-74
2021/07/04 09:29:53;;;;;;;5.28;3.38;;;22.90;63.00;;;;;;6296328;28;20064;-73
2021/07/04 09:32:54;;;;;;;6.20;3.70;;;22.60;63.80;;;;;;6320223;28;20044;-74
2021/07/04 09:35:58;;;;;;;6.35;3.72;;;22.50;64.40;;;;;;6328371;28;20095;-74
2021/07/04 09:38:59;;;;;;;6.30;3.70;;;22.40;65.20;;;;;;6322040;28;20032;-74
2021/07/04 09:42:09;;;;;;;8.27;3.95;;;22.40;65.90;;;;;;6321811;28;20309;-73
2021/07/04 09:45:11;;;;;;;7.53;3.50;;;22.40;66.00;;;;;;6323628;28;20028;-73
2021/07/04 09:48:15;;;;;;;8.90;3.30;;;22.40;66.10;;;;;;6321403;28;20036;-73
2021/07/04 09:51:29;;;;;;;9.40;4.13;;;22.40;66.30;;;;;;6322193;28;20042;-74
2021/07/04 09:54:31;;;;;;;9.73;4.30;;;22.40;66.80;;;;;;6317749;28;20130;-74
2021/07/04 09:57:52;;;;;;;22.45;8.68;;;22.30;67.40;;;;;;6278194;28;20041;-74
2021/07/04 10:00:53;;;;;;;11.35;7.25;;;22.30;68.10;;;;;;6311377;28;20040;-74
2021/07/04 10:03:55;;;;;;;12.38;6.28;;;22.40;68.30;;;;;;6326186;28;20032;-74
2021/07/04 10:06:59;;;;;;;9.43;4.75;;;22.40;68.20;;;;;;6303009;28;20361;-74
2021/07/04 10:10:01;;;;;;;10.70;4.85;;;22.40;68.40;;;;;;6319710;28;20429;-75
2021/07/04 10:13:03;;;;;;;12.15;6.50;;;22.40;68.40;;;;;;6319896;28;20528;-74
2021/07/04 10:16:07;;;;;;;28.30;12.23;;;22.50;68.30;;;;;;6320631;28;20040;-74
2021/07/04 10:19:13;;;;;;;12.20;5.22;;;22.60;68.30;;;;;;6319527;28;20038;-74
2021/07/04 10:22:15;;;;;;;11.50;4.47;;;22.70;67.70;;;;;;6318343;28;20032;-74
2021/07/04 10:25:16;;;;;;;12.10;7.10;;;22.90;67.20;;;;;;6318843;28;20400;-75
2021/07/04 10:28:31;;;;;;;6.88;4.22;;;23.10;66.80;;;;;;6294450;28;20039;-73
2021/07/04 10:31:33;;;;;;;17.10;8.18;;;23.30;66.30;;;;;;6294035;28;20414;-74
2021/07/04 10:34:45;;;;;;;4.30;2.83;;;23.40;66.50;;;;;;6315528;28;20040;-74
2021/07/04 10:37:46;;;;;;;6.22;3.85;;;23.50;65.60;;;;;;6318335;28;20042;-73
2021/07/04 10:40:47;;;;;;;6.43;3.53;;;23.60;65.30;;;;;;6320618;28;20036;-75
2021/07/04 10:43:51;;;;;;;6.00;3.70;;;23.80;65.00;;;;;;6313569;28;20066;-73
2021/07/04 10:46:58;;;;;;;9.77;3.92;;;23.90;64.80;;;;;;6314412;28;20388;-73
2021/07/04 10:50:05;;;;;;;9.30;3.77;;;23.90;64.20;;;;;;6318491;28;20036;-74
2021/07/04 10:53:07;;;;;;;7.97;4.03;;;24.00;64.20;;;;;;6291214;28;20059;-73
2021/07/04 10:56:32;;;;;;;6.10;3.35;;;24.00;64.00;;;;;;6284603;28;20059;-73
2021/07/04 10:59:47;;;;;;;7.95;4.50;;;24.20;63.80;;;;;;6273983;28;20061;-74
2021/07/04 11:02:50;;;;;;;7.30;3.47;;;24.40;63.40;;;;;;6305726;28;20028;-73
2021/07/04 11:05:52;;;;;;;10.40;3.80;;;24.60;62.70;;;;;;6307914;28;20047;-73
2021/07/04 11:08:53;;;;;;;5.63;3.35;;;24.80;62.00;;;;;;6281005;28;20454;-75
2021/07/04 11:12:24;;;;;;;4.50;3.20;;;24.90;61.30;;;;;;6273577;28;20029;-73
2021/07/04 11:15:25;;;;;;;5.78;3.25;;;25.10;61.00;;;;;;6281163;28;20107;-73
2021/07/04 11:18:57;;;;;;;4.57;3.15;;;25.10;60.40;;;;;;6297675;28;20032;-73
2021/07/04 11:21:58;;;;;;;9.38;3.85;;;25.00;60.40;;;;;;6293926;28;20444;-73
2021/07/04 11:25:16;;;;;;;6.28;3.88;;;24.80;60.70;;;;;;6295831;28;20394;-73
2021/07/04 11:28:21;;;;;;;8.17;3.83;;;24.60;61.40;;;;;;6291893;28;20035;-73
2021/07/04 11:31:26;;;;;;;4.38;2.95;;;24.60;61.50;;;;;;6295988;28;20032;-75
2021/07/04 11:34:27;;;;;;;7.90;3.20;;;24.50;61.50;;;;;;6316191;28;20054;-74
2021/07/04 11:37:38;;;;;;;5.55;3.22;;;24.50;61.50;;;;;;6314727;28;20370;-74
2021/07/04 11:40:40;;;;;;;6.25;3.72;;;24.40;61.70;;;;;;6254708;28;20040;-75
2021/07/04 11:43:43;;;;;;;5.32;3.53;;;24.40;61.80;;;;;;6271767;28;20039;-74
2021/07/04 11:46:49;;;;;;;7.95;3.85;;;24.40;62.10;;;;;;6296544;28;20048;-73
2021/07/04 11:49:51;;;;;;;5.95;3.22;;;24.30;62.50;;;;;;6296697;28;20044;-73
2021/07/04 11:53:06;;;;;;;4.20;2.83;;;24.20;62.60;;;;;;6298387;28;20044;-75
2021/07/04 11:56:07;;;;;;;3.67;2.20;;;24.10;63.30;;;;;;6269658;28;20449;-74
2021/07/04 11:59:11;;;;;;;1.80;1.08;;;23.80;63.30;;;;;;6279790;28;20037;-73
2021/07/04 12:02:12;;;;;;;3.72;0.40;;;23.40;62.80;;;;;;6298604;28;20040;-75
2021/07/04 12:05:14;;;;;;;0.63;0.50;;;22.90;61.60;;;;;;6320058;28;20472;-74
2021/07/04 12:08:16;;;;;;;2.67;0.68;;;22.40;61.90;;;;;;6321228;28;20056;-74
2021/07/04 12:11:18;;;;;;;1.48;0.65;;;22.00;63.50;;;;;;6320408;28;20356;-74
2021/07/04 12:14:30;;;;;;;0.80;0.60;;;21.70;64.60;;;;;;6304668;28;20102;-74
2021/07/04 12:17:33;;;;;;;1.83;0.70;;;21.60;65.70;;;;;;6300076;28;20068;-74
2021/07/04 12:20:36;;;;;;;2.95;0.80;;;21.50;66.30;;;;;;6323036;28;20040;-75
2021/07/04 12:23:38;;;;;;;4.93;0.88;;;21.40;66.40;;;;;;6322594;28;20028;-74
2021/07/04 12:26:46;;;;;;;1.83;0.95;;;21.30;66.60;;;;;;6294657;28;20372;-74
2021/07/04 12:30:15;;;;;;;2.38;0.93;;;21.10;67.50;;;;;;6278542;28;20051;-74
2021/07/04 12:33:17;;;;;;;1.95;0.95;;;21.00;68.60;;;;;;6305338;28;20047;-74
2021/07/04 12:36:20;;;;;;;2.45;0.77;;;20.90;69.20;;;;;;6325816;28;20084;-74
2021/07/04 12:39:29;;;;;;;2.33;0.80;;;20.80;69.40;;;;;;6329142;28;20036;-74
2021/07/04 12:42:30;;;;;;;3.58;0.93;;;20.90;69.50;;;;;;6329403;28;20036;-73
2021/07/04 12:45:32;;;;;;;2.22;0.60;;;21.00;69.50;;;;;;6325421;28;20089;-74
2021/07/04 12:48:40;;;;;;;2.08;0.68;;;21.10;69.20;;;;;;6322125;28;20044;-74
2021/07/04 12:51:46;;;;;;;2.75;0.70;;;21.20;68.70;;;;;;6321180;28;20046;-74
2021/07/04 12:54:47;;;;;;;0.98;0.60;;;21.30;68.10;;;;;;6322608;28;20036;-74
2021/07/04 12:57:48;;;;;;;13.95;1.10;;;21.40;68.00;;;;;;6299757;28;20115;-74
2021/07/04 13:00:51;;;;;;;1.30;0.80;;;21.60;67.80;;;;;;6313346;28;20029;-74
2021/07/04 13:03:54;;;;;;;0.57;0.57;;;21.70;67.50;;;;;;6327943;28;20349;-74
2021/07/04 13:07:00;;;;;;;3.90;0.90;;;21.90;67.20;;;;;;6297516;28;20032;-74
2021/07/04 13:10:02;;;;;;;3.13;1.50;;;22.30;66.90;;;;;;6271447;28;20066;-74
2021/07/04 13:13:10;;;;;;;6.63;2.20;;;22.70;66.40;;;;;;6271706;28;20112;-74
2021/07/04 13:16:13;;;;;;;2.95;2.45;;;23.20;65.70;;;;;;6270032;28;20029;-74
2021/07/04 13:19:22;;;;;;;5.13;2.95;;;23.50;65.30;;;;;;6271623;28;20513;-75
2021/07/04 13:22:32;;;;;;;3.92;2.72;;;23.70;65.10;;;;;;6257323;28;20028;-73
2021/07/04 13:25:33;;;;;;;4.28;2.72;;;24.00;64.70;;;;;;6275130;28;20056;-75
2021/07/04 13:28:35;;;;;;;9.05;3.63;;;24.50;64.20;;;;;;6316374;28;20082;-74
2021/07/04 13:31:36;;;;;;;12.85;6.30;;;25.10;62.80;;;;;;6281647;28;20043;-74
2021/07/04 13:34:40;;;;;;;10.68;4.95;;;25.60;61.40;;;;;;6300706;28;20040;-73
2021/07/04 13:37:55;;;;;;;7.97;3.90;;;26.00;60.60;;;;;;6304064;28;20133;-73
2021/07/04 13:40:57;;;;;;;3.15;2.22;;;26.30;59.60;;;;;;6320855;28;20059;-75
2021/07/04 13:43:59;;;;;;;5.43;2.08;;;26.70;58.80;;;;;;6309025;28;20059;-74
2021/07/04 13:47:00;;;;;;;6.53;2.67;;;26.90;58.10;;;;;;6295050;28;20056;-74
2021/07/04 13:50:03;;;;;;;2.97;1.60;;;26.90;57.10;;;;;;6327904;28;20032;-74
2021/07/04 13:53:07;;;;;;;2.45;1.60;;;27.10;56.40;;;;;;6299540;28;20093;-74
2021/07/04 13:56:08;;;;;;;4.63;1.83;;;27.20;56.00;;;;;;6319808;28;20120;-74
2021/07/04 13:59:09;;;;;;;5.70;3.03;;;27.50;55.80;;;;;;6277597;28;20330;-75
2021/07/04 14:02:10;;;;;;;8.65;2.80;;;28.90;54.20;;;;;;6297767;28;20036;-74
2021/07/04 14:05:12;;;;;;;3.25;2.33;;;31.30;49.80;;;;;;6322824;28;20032;-75
2021/07/04 14:08:13;;;;;;;2.00;1.70;;;32.90;45.90;;;;;;6319831;28;20074;-75
2021/07/04 14:11:14;;;;;;;2.30;1.58;;;32.90;44.70;;;;;;6320331;28;20407;-74
2021/07/04 14:18:40;;;;;;;6.93;2.72;;;31.20;46.70;;;;;;6298163;28;20037;-74
2021/07/04 14:21:41;;;;;;;13.15;4.57;;;30.00;48.10;;;;;;6297857;28;20043;-75
2021/07/04 14:24:43;;;;;;;3.22;1.92;;;29.30;49.30;;;;;;6297668;28;20338;-74
2021/07/04 14:27:45;;;;;;;3.20;1.90;;;28.80;50.00;;;;;;6298351;28;20446;-74
2021/07/04 14:30:46;;;;;;;2.08;1.77;;;28.40;50.50;;;;;;6300041;28;20139;-74
2021/07/04 14:33:47;;;;;;;2.33;1.70;;;28.00;51.30;;;;;;6299060;28;20061;-74
2021/07/04 14:36:48;;;;;;;2.83;2.03;;;27.80;51.60;;;;;;6273901;28;20033;-74
2021/07/04 14:39:49;;;;;;;4.10;1.80;;;27.50;51.70;;;;;;6274243;28;20063;-73
2021/07/04 14:42:51;;;;;;;1.45;1.17;;;27.40;51.90;;;;;;6273676;28;20067;-73
2021/07/04 14:50:15;;;;;;;4.05;2.50;;;27.80;51.00;;;;;;6288275;28;20021;-74
2021/07/04 14:53:17;;;;;;;3.42;2.42;;;28.00;50.80;;;;;;6298745;28;20127;-73
2021/07/04 14:56:22;;;;;;;3.25;1.50;;;28.30;50.50;;;;;;6297045;28;20063;-74
2021/07/04 14:59:24;;;;;;;3.70;2.75;;;28.30;49.80;;;;;;6314767;28;20455;-73
2021/07/04 15:02:26;;;;;;;1.98;1.40;;;28.50;50.10;;;;;;6300022;28;20356;-74
2021/07/04 15:05:28;;;;;;;1.90;1.50;;;28.50;49.20;;;;;;6322172;28;20458;-74
2021/07/04 15:08:29;;;;;;;5.22;2.55;;;28.50;49.60;;;;;;6322902;28;20038;-74
2021/07/04 15:11:32;;;;;;;3.35;2.15;;;28.40;49.90;;;;;;6305038;28;20043;-73
2021/07/04 15:14:33;;;;;;;4.28;1.30;;;28.40;49.90;;;;;;6280851;28;20040;-74
2021/07/04 15:17:34;;;;;;;2.45;1.05;;;28.40;49.80;;;;;;6298560;28;20047;-74
2021/07/04 15:20:35;;;;;;;2.72;1.40;;;28.20;49.90;;;;;;6281965;28;20040;-74
2021/07/04 15:23:36;;;;;;;2.15;1.17;;;28.10;50.10;;;;;;6271802;28;20037;-74
2021/07/04 15:26:38;;;;;;;2.83;1.42;;;28.00;50.20;;;;;;6270915;28;20033;-74
2021/07/04 15:29:39;;;;;;;2.95;1.20;;;27.90;50.30;;;;;;6279833;28;20048;-75
2021/07/04 15:32:40;;;;;;;3.13;0.93;;;27.80;50.30;;;;;;6299448;28;20046;-74
2021/07/04 15:35:42;;;;;;;1.52;1.27;;;27.70;50.30;;;;;;6322285;28;20112;-74
2021/07/04 15:38:47;;;;;;;2.15;1.00;;;27.50;50.20;;;;;;6320118;28;20039;-73
2021/07/04 15:41:48;;;;;;;1.38;1.02;;;27.30;51.10;;;;;;6303954;28;20028;-73
2021/07/04 15:44:50;;;;;;;0.95;0.90;;;27.20;50.80;;;;;;6297513;28;20032;-73
2021/07/04 15:47:52;;;;;;;2.88;1.02;;;27.20;50.80;;;;;;6300049;28;20170;-74
2021/07/04 15:50:53;;;;;;;1.48;1.23;;;27.00;50.80;;;;;;6317822;28;20028;-73
2021/07/04 15:53:55;;;;;;;4.35;1.90;;;26.90;50.90;;;;;;6299382;28;20121;-73
2021/07/04 15:56:57;;;;;;;4.75;1.83;;;27.00;50.80;;;;;;6317261;28;20040;-74
2021/07/04 15:59:58;;;;;;;3.38;2.17;;;27.20;50.80;;;;;;6300800;28;20071;-74
2021/07/04 16:02:59;;;;;;;3.88;1.45;;;27.70;50.40;;;;;;6308359;28;20062;-74